Alaska — SYDS — position and weather

sailwx.info

Track history (hours):
 
Tides and Currents Weather Stations Pressure Air Temp Water Temp Dewpoint Dewpoint Depression Visibility Wind Speed Wind Dir Waves Ship Positions

Alaska

Last reported at 2017-May-23 14:52 UTC. Time now 2017-May-24 15:45 UTC.
Position N 39°45' E 000°16'.

Length 274 m; draft 14.2 m.

Type: Tanker. MMSI: 240472000.

Date/timePositionNaut miles runAvg speedWind from/ knotsBaromVisibWave heightAir tempDewpointWater temp
2017-May-23 14:52N 39°45' E 000°16'4 9.6
2017-May-23 14:26N 39°41' E 000°19'1111.8
2017-May-23 13:30N 39°32' E 000°26'712.8
2017-May-23 12:56N 39°25' E 000°25'513.1
2017-May-23 12:30N 39°19' E 000°26'1212.9
2017-May-23 11:35N 39°07' E 000°27'212.9
2017-May-23 11:26N 39°05' E 000°28'2512.7
2017-May-23 09:29N 38°41' E 000°27'4311.9
2017-May-23 05:50N 38°05' W 000°04'612.6
2017-May-23 05:22N 37°60' W 000°08'1212.6
2017-May-23 04:25N 37°50' W 000°17'512.6
2017-May-23 04:00N 37°45' W 000°20'612.8
2017-May-23 03:30N 37°40' W 000°25'612.7
2017-May-23 03:00N 37°35' W 000°29'712.6
2017-May-23 02:25N 37°30' W 000°36'512.8
2017-May-23 01:59N 37°26' W 000°41'612.9
2017-May-23 01:30N 37°22' W 000°47'713.0
2017-May-23 00:58N 37°17' W 000°54'21812.7
2017-May-22 07:43N 36°01' W 005°09'313.8
2017-May-22 07:30N 36°01' W 005°12'714.2
2017-May-22 07:00N 35°59' W 005°21'714.3
2017-May-22 06:30N 35°57' W 005°29'1013.4
2017-May-22 05:48N 35°54' W 005°40'412.7
2017-May-22 05:30N 35°54' W 005°45'712.9
2017-May-22 04:56N 35°54' W 005°54'613.7
2017-May-22 04:29N 35°53' W 006°02'  
Track history (hours):
 
Tides and Currents Weather Stations Pressure Air Temp Water Temp Dewpoint Dewpoint Depression Visibility Wind Speed Wind Dir Waves Ship Positions

Alaska

Last reported at 2017-May-23 14:52 UTC. Time now 2017-May-24 15:45 UTC.
Position N 39°45' E 000°16'.

Length 274 m; draft 14.2 m.

Type: Tanker. MMSI: 240472000.

Date/timePositionNaut miles runAvg speedWind from/ knotsBaromVisibWave heightAir tempDewpointWater temp
2017-May-23 14:52N 39°45' E 000°16'4 9.6
2017-May-23 14:26N 39°41' E 000°19'1111.8
2017-May-23 13:30N 39°32' E 000°26'712.8
2017-May-23 12:56N 39°25' E 000°25'513.1
2017-May-23 12:30N 39°19' E 000°26'1212.9
2017-May-23 11:35N 39°07' E 000°27'212.9
2017-May-23 11:26N 39°05' E 000°28'2512.7
2017-May-23 09:29N 38°41' E 000°27'4311.9
2017-May-23 05:50N 38°05' W 000°04'612.6
2017-May-23 05:22N 37°60' W 000°08'1212.6
2017-May-23 04:25N 37°50' W 000°17'512.6
2017-May-23 04:00N 37°45' W 000°20'612.8
2017-May-23 03:30N 37°40' W 000°25'612.7
2017-May-23 03:00N 37°35' W 000°29'712.6
2017-May-23 02:25N 37°30' W 000°36'512.8
2017-May-23 01:59N 37°26' W 000°41'612.9
2017-May-23 01:30N 37°22' W 000°47'713.0
2017-May-23 00:58N 37°17' W 000°54'21812.7
2017-May-22 07:43N 36°01' W 005°09'313.8
2017-May-22 07:30N 36°01' W 005°12'714.2
2017-May-22 07:00N 35°59' W 005°21'714.3
2017-May-22 06:30N 35°57' W 005°29'1013.4
2017-May-22 05:48N 35°54' W 005°40'412.7
2017-May-22 05:30N 35°54' W 005°45'712.9
2017-May-22 04:56N 35°54' W 005°54'613.7
2017-May-22 04:29N 35°53' W 006°02'  

Dump ship's entire track history